Time;durP1;ratioP1;P1;durP2;ratioP2;P2;SDS_P1;SDS_P2;PMS_P1;PMS_P2;Temp;Humidity;BMP_temperature;BMP_pressure;BME280_temperature;BME280_humidity;BME280_pressure;Samples;Min_cycle;Max_cycle;Signal;HPM_P1;HPM_P2
2021/10/18 00:00:10;;;;;;;61.85;35.97;;;;;;;;;;5025574;28;20029;-50
2021/10/18 00:02:36;;;;;;;63.05;36.35;;;;;;;;;;5026418;28;20029;-49
2021/10/18 00:05:05;;;;;;;70.75;41.45;;;;;;;;;;5026061;28;20036;-52
2021/10/18 00:07:32;;;;;;;58.88;36.67;;;;;;;;;;5025750;28;20017;-49
2021/10/18 00:09:58;;;;;;;72.68;40.95;;;;;;;;;;5025480;28;20112;-51
2021/10/18 00:12:24;;;;;;;58.47;34.63;;;;;;;;;;5025583;28;21560;-48
2021/10/18 00:14:50;;;;;;;65.18;38.60;;;;;;;;;;5025728;28;20036;-49
2021/10/18 00:17:16;;;;;;;65.93;37.75;;;;;;;;;;5025593;28;20037;-49
2021/10/18 00:19:42;;;;;;;61.35;36.30;;;;;;;;;;5025502;28;20029;-49
2021/10/18 00:22:11;;;;;;;58.45;34.97;;;;;;;;;;5026017;28;20029;-49
2021/10/18 00:24:37;;;;;;;57.97;35.67;;;;;;;;;;5025281;28;20068;-49
2021/10/18 00:27:03;;;;;;;60.20;34.03;;;;;;;;;;5029342;28;20033;-51
2021/10/18 00:29:29;;;;;;;62.53;35.63;;;;;;;;;;5052593;28;20056;-49
2021/10/18 00:31:55;;;;;;;72.72;43.53;;;;;;;;;;5052136;28;20025;-47
2021/10/18 00:34:21;;;;;;;64.03;39.50;;;;;;;;;;5051968;28;20388;-49
2021/10/18 00:36:47;;;;;;;54.08;32.28;;;;;;;;;;5051964;28;20037;-51
2021/10/18 00:39:13;;;;;;;68.05;40.88;;;;;;;;;;5052214;28;20104;-48
2021/10/18 00:41:39;;;;;;;64.18;34.47;;;;;;;;;;5051616;28;20021;-47
2021/10/18 00:44:06;;;;;;;54.85;32.55;;;;;;;;;;5052241;28;20061;-49
2021/10/18 00:46:32;;;;;;;59.95;34.80;;;;;;;;;;5052581;28;20496;-51
2021/10/18 00:48:58;;;;;;;57.15;34.22;;;;;;;;;;5052749;28;20033;-48
2021/10/18 00:51:26;;;;;;;49.58;29.80;;;;;;;;;;5052614;28;20017;-52
2021/10/18 00:53:53;;;;;;;51.50;30.92;;;;;;;;;;5052585;28;20067;-49
2021/10/18 00:56:19;;;;;;;53.60;28.58;;;;;;;;;;5052477;28;20534;-49
2021/10/18 00:58:45;;;;;;;46.65;27.77;;;;;;;;;;5052616;28;20033;-49
2021/10/18 01:01:16;;;;;;;49.45;28.45;;;;;;;;;;5052663;28;20028;-49
2021/10/18 01:03:42;;;;;;;47.80;28.27;;;;;;;;;;5052609;28;20025;-49
2021/10/18 01:06:08;;;;;;;50.00;29.52;;;;;;;;;;5052339;28;20033;-48
2021/10/18 01:08:35;;;;;;;46.85;28.58;;;;;;;;;;5052486;28;20026;-49
2021/10/18 01:11:02;;;;;;;47.75;27.95;;;;;;;;;;5052450;28;20053;-49
2021/10/18 01:13:28;;;;;;;48.55;29.45;;;;;;;;;;5052229;28;20029;-48
2021/10/18 01:15:55;;;;;;;44.92;28.20;;;;;;;;;;5052131;28;20041;-48
2021/10/18 01:18:21;;;;;;;51.47;30.55;;;;;;;;;;5052351;28;20021;-48
2021/10/18 01:20:47;;;;;;;45.13;28.70;;;;;;;;;;5052232;28;20057;-49
2021/10/18 01:23:13;;;;;;;45.40;28.30;;;;;;;;;;5055403;28;20032;-48
2021/10/18 01:25:42;;;;;;;55.90;33.53;;;;;;;;;;5055612;28;20519;-49
2021/10/18 01:28:08;;;;;;;59.67;36.00;;;;;;;;;;5055735;28;20100;-49
2021/10/18 01:30:37;;;;;;;52.05;30.30;;;;;;;;;;5055670;28;20020;-49
2021/10/18 01:33:03;;;;;;;46.03;28.45;;;;;;;;;;5055707;28;20499;-49
2021/10/18 01:35:29;;;;;;;51.67;32.58;;;;;;;;;;5055434;28;20029;-48
2021/10/18 01:37:55;;;;;;;48.05;30.13;;;;;;;;;;5055660;28;20033;-49
2021/10/18 01:40:22;;;;;;;49.00;30.08;;;;;;;;;;5055547;28;20488;-48
2021/10/18 01:42:51;;;;;;;49.53;30.63;;;;;;;;;;5055483;28;20029;-49
2021/10/18 01:45:21;;;;;;;53.72;32.67;;;;;;;;;;5055329;28;20522;-50
2021/10/18 01:47:47;;;;;;;47.20;29.10;;;;;;;;;;5055446;28;20496;-49
2021/10/18 01:50:17;;;;;;;57.28;33.97;;;;;;;;;;5055451;28;20021;-49
2021/10/18 01:52:44;;;;;;;60.75;32.90;;;;;;;;;;5055317;28;20477;-50
2021/10/18 01:55:10;;;;;;;52.03;30.35;;;;;;;;;;5055228;28;20031;-50
2021/10/18 01:57:37;;;;;;;49.60;30.13;;;;;;;;;;5055052;28;20040;-50
2021/10/18 02:00:03;;;;;;;63.72;34.25;;;;;;;;;;5055368;28;20074;-49
2021/10/18 02:02:30;;;;;;;55.72;32.38;;;;;;;;;;5055406;28;20365;-51
2021/10/18 02:04:56;;;;;;;55.35;31.13;;;;;;;;;;5055068;28;20052;-49
2021/10/18 02:07:22;;;;;;;54.92;32.17;;;;;;;;;;5055107;28;20021;-49
2021/10/18 02:09:48;;;;;;;64.13;36.45;;;;;;;;;;5055163;28;20060;-49
2021/10/18 02:12:14;;;;;;;56.70;33.30;;;;;;;;;;5055389;28;20469;-49
2021/10/18 02:14:40;;;;;;;46.60;28.33;;;;;;;;;;5054934;28;20708;-49
2021/10/18 02:17:06;;;;;;;58.03;33.05;;;;;;;;;;5054914;28;20033;-50
2021/10/18 02:19:32;;;;;;;50.60;30.30;;;;;;;;;;5055014;28;20469;-49
2021/10/18 02:21:58;;;;;;;47.47;28.65;;;;;;;;;;5054949;28;20036;-49
2021/10/18 02:24:24;;;;;;;48.22;27.08;;;;;;;;;;5054789;28;20117;-49
2021/10/18 02:26:50;;;;;;;55.47;32.42;;;;;;;;;;5054719;28;20025;-50
2021/10/18 02:29:17;;;;;;;51.45;28.38;;;;;;;;;;5054600;28;20024;-49
2021/10/18 02:31:52;;;;;;;45.33;25.35;;;;;;;;;;5054719;28;20031;-48
2021/10/18 02:34:23;;;;;;;41.85;23.48;;;;;;;;;;5053548;28;20077;-49
2021/10/18 02:36:49;;;;;;;38.72;23.27;;;;;;;;;;5054684;28;20151;-50
2021/10/18 02:39:15;;;;;;;38.65;22.80;;;;;;;;;;5054653;28;20025;-49
2021/10/18 02:41:46;;;;;;;41.00;24.65;;;;;;;;;;5054367;28;20028;-49
2021/10/18 02:44:12;;;;;;;47.47;27.83;;;;;;;;;;5054618;28;20031;-49
2021/10/18 02:46:38;;;;;;;39.78;23.33;;;;;;;;;;5054375;28;20366;-49
2021/10/18 02:49:04;;;;;;;42.67;25.50;;;;;;;;;;5054234;28;20489;-49
2021/10/18 02:51:30;;;;;;;39.88;25.20;;;;;;;;;;5054368;28;20032;-49
2021/10/18 02:53:56;;;;;;;44.08;25.13;;;;;;;;;;5054331;28;20036;-49
2021/10/18 02:56:22;;;;;;;42.28;25.40;;;;;;;;;;5054031;28;20539;-49
2021/10/18 02:58:48;;;;;;;38.53;23.15;;;;;;;;;;5054063;28;20109;-49
2021/10/18 03:01:14;;;;;;;39.75;24.00;;;;;;;;;;5053923;28;20028;-48
2021/10/18 03:03:43;;;;;;;47.20;25.98;;;;;;;;;;5054235;28;20029;-49
2021/10/18 03:06:09;;;;;;;40.78;25.40;;;;;;;;;;5053867;28;20036;-48
2021/10/18 03:08:35;;;;;;;46.20;25.27;;;;;;;;;;5054087;28;20485;-49
2021/10/18 03:11:01;;;;;;;38.80;23.80;;;;;;;;;;5054082;28;20029;-49
2021/10/18 03:13:28;;;;;;;43.92;23.85;;;;;;;;;;5053775;28;20078;-49
2021/10/18 03:15:54;;;;;;;44.85;25.02;;;;;;;;;;5053795;28;20033;-49
2021/10/18 03:18:21;;;;;;;39.85;24.42;;;;;;;;;;5053776;28;20024;-49
2021/10/18 03:20:47;;;;;;;38.95;24.00;;;;;;;;;;5053837;28;20025;-49
2021/10/18 03:23:13;;;;;;;41.05;23.42;;;;;;;;;;5053569;28;20031;-49
2021/10/18 03:25:39;;;;;;;40.70;24.42;;;;;;;;;;5053522;28;20041;-49
2021/10/18 03:28:05;;;;;;;39.95;24.05;;;;;;;;;;5053591;28;20032;-49
2021/10/18 03:30:31;;;;;;;44.97;24.42;;;;;;;;;;5053592;28;20096;-48
2021/10/18 03:32:58;;;;;;;41.08;24.58;;;;;;;;;;5053642;28;20063;-49
2021/10/18 03:35:25;;;;;;;42.47;25.77;;;;;;;;;;5053464;28;20040;-49
2021/10/18 03:37:51;;;;;;;47.38;24.83;;;;;;;;;;5053315;28;20037;-49
2021/10/18 03:40:17;;;;;;;42.25;24.15;;;;;;;;;;5053576;28;20063;-48
2021/10/18 03:42:43;;;;;;;52.50;25.80;;;;;;;;;;5053279;28;20029;-49
2021/10/18 03:45:12;;;;;;;45.17;26.75;;;;;;;;;;5053239;28;20021;-49
2021/10/18 03:47:39;;;;;;;45.90;25.38;;;;;;;;;;5053322;28;20028;-49
2021/10/18 03:50:05;;;;;;;42.15;24.20;;;;;;;;;;5053347;28;20068;-49
2021/10/18 03:52:31;;;;;;;44.65;24.08;;;;;;;;;;5053374;28;20075;-50
2021/10/18 03:54:57;;;;;;;43.22;25.23;;;;;;;;;;5053211;28;20119;-49
2021/10/18 03:57:23;;;;;;;41.90;23.80;;;;;;;;;;5052945;28;20044;-48
2021/10/18 03:59:50;;;;;;;42.65;24.90;;;;;;;;;;5053494;28;20094;-49
2021/10/18 04:02:16;;;;;;;42.58;24.30;;;;;;;;;;5053067;28;20471;-49
2021/10/18 04:04:42;;;;;;;45.72;24.80;;;;;;;;;;5052954;28;20104;-50
2021/10/18 04:07:10;;;;;;;50.13;26.75;;;;;;;;;;5053283;28;20037;-51
2021/10/18 04:09:38;;;;;;;51.50;26.52;;;;;;;;;;5053082;28;20043;-50
2021/10/18 04:12:05;;;;;;;49.00;28.40;;;;;;;;;;5052852;28;20480;-50
2021/10/18 04:14:31;;;;;;;50.33;27.88;;;;;;;;;;5053353;28;20033;-51
2021/10/18 04:16:57;;;;;;;52.30;26.92;;;;;;;;;;5052789;28;20033;-51
2021/10/18 04:19:23;;;;;;;45.38;26.98;;;;;;;;;;5052995;28;20083;-51
2021/10/18 04:21:49;;;;;;;45.58;27.08;;;;;;;;;;5052936;28;20448;-51
2021/10/18 04:24:15;;;;;;;51.75;28.45;;;;;;;;;;5052620;28;20043;-52
2021/10/18 04:26:41;;;;;;;64.65;28.92;;;;;;;;;;5052838;28;20025;-51
2021/10/18 04:29:08;;;;;;;51.20;28.55;;;;;;;;;;5052700;28;20032;-52
2021/10/18 04:31:35;;;;;;;52.30;30.23;;;;;;;;;;5052848;28;20044;-50
2021/10/18 04:34:01;;;;;;;44.55;27.45;;;;;;;;;;5052772;28;20329;-51
2021/10/18 04:36:28;;;;;;;50.95;28.73;;;;;;;;;;5052494;28;20060;-52
2021/10/18 04:38:54;;;;;;;47.15;27.45;;;;;;;;;;5052754;28;20029;-52
2021/10/18 04:41:20;;;;;;;54.58;29.70;;;;;;;;;;5052633;28;20112;-52
2021/10/18 04:43:46;;;;;;;52.78;28.90;;;;;;;;;;5052625;28;20025;-50
2021/10/18 04:46:13;;;;;;;49.78;28.65;;;;;;;;;;5052525;28;20393;-52
2021/10/18 04:48:39;;;;;;;48.03;27.27;;;;;;;;;;5052546;28;20137;-51
2021/10/18 04:51:12;;;;;;;49.33;27.95;;;;;;;;;;5052563;28;20025;-51
2021/10/18 04:53:38;;;;;;;56.53;30.33;;;;;;;;;;5052539;28;20029;-50
2021/10/18 04:56:04;;;;;;;55.15;29.45;;;;;;;;;;5052381;28;20063;-50
2021/10/18 04:58:33;;;;;;;52.05;30.63;;;;;;;;;;5056279;28;20514;-50
2021/10/18 05:00:59;;;;;;;50.28;30.23;;;;;;;;;;5056294;28;20500;-52
2021/10/18 05:03:27;;;;;;;60.03;31.95;;;;;;;;;;5056230;28;20453;-52
2021/10/18 05:05:53;;;;;;;71.63;35.72;;;;;;;;;;5056099;28;20021;-52
2021/10/18 05:08:19;;;;;;;90.57;38.08;;;;;;;;;;5055639;28;20384;-51
2021/10/18 05:10:46;;;;;;;88.55;39.08;;;;;;;;;;5055915;28;20384;-51
2021/10/18 05:13:15;;;;;;;100.00;46.50;;;;;;;;;;5055977;28;20025;-52
2021/10/18 05:15:41;;;;;;;98.90;47.85;;;;;;;;;;5055949;28;20025;-52
2021/10/18 05:18:07;;;;;;;103.30;50.38;;;;;;;;;;5055978;28;20037;-51
2021/10/18 05:20:34;;;;;;;94.40;45.78;;;;;;;;;;5056141;28;20028;-51
2021/10/18 05:23:00;;;;;;;84.57;43.63;;;;;;;;;;5055961;28;20024;-51
2021/10/18 05:25:27;;;;;;;85.70;42.72;;;;;;;;;;5055625;28;20119;-50
2021/10/18 05:27:53;;;;;;;95.45;43.63;;;;;;;;;;5055788;28;20029;-50
2021/10/18 05:30:24;;;;;;;90.13;46.00;;;;;;;;;;5055867;28;20025;-52
2021/10/18 05:32:50;;;;;;;98.70;47.40;;;;;;;;;;5056042;28;20152;-54
2021/10/18 05:35:16;;;;;;;93.63;43.83;;;;;;;;;;5055703;28;20025;-50
2021/10/18 05:37:45;;;;;;;93.47;46.58;;;;;;;;;;5055887;28;20056;-53
2021/10/18 05:40:12;;;;;;;99.72;50.00;;;;;;;;;;5055734;28;20146;-52
2021/10/18 05:42:38;;;;;;;111.38;55.35;;;;;;;;;;5055566;28;20037;-53
2021/10/18 05:45:05;;;;;;;137.10;71.95;;;;;;;;;;5055493;28;20025;-54
2021/10/18 05:47:33;;;;;;;167.30;87.22;;;;;;;;;;5055437;28;20025;-52
2021/10/18 05:50:00;;;;;;;143.63;71.05;;;;;;;;;;5055493;28;20032;-60
2021/10/18 05:52:31;;;;;;;134.07;72.05;;;;;;;;;;5055505;28;20094;-53
2021/10/18 05:54:57;;;;;;;130.80;65.05;;;;;;;;;;5055408;28;20020;-54
2021/10/18 05:57:23;;;;;;;119.40;60.17;;;;;;;;;;5054311;28;20045;-58
2021/10/18 05:59:50;;;;;;;121.88;63.92;;;;;;;;;;5055404;28;20021;-51
2021/10/18 06:02:16;;;;;;;142.95;72.13;;;;;;;;;;5055065;28;20032;-52
2021/10/18 06:04:45;;;;;;;145.82;72.47;;;;;;;;;;5055173;28;20499;-57
2021/10/18 06:07:11;;;;;;;139.30;71.90;;;;;;;;;;5055142;28;20108;-54
2021/10/18 06:09:37;;;;;;;154.20;78.00;;;;;;;;;;5055018;28;20021;-53
2021/10/18 06:12:04;;;;;;;163.30;82.78;;;;;;;;;;5055026;28;20477;-51
2021/10/18 06:14:30;;;;;;;1339.45;194.52;;;;;;;;;;5055157;28;20036;-52
2021/10/18 06:16:56;;;;;;;181.40;78.32;;;;;;;;;;5054901;28;20029;-53
2021/10/18 06:19:22;;;;;;;157.90;70.20;;;;;;;;;;5055117;28;20025;-50
2021/10/18 06:21:48;;;;;;;108.20;50.58;;;;;;;;;;5055143;28;20158;-50
2021/10/18 06:24:14;;;;;;;75.20;38.90;;;;;;;;;;5054808;28;20090;-49
2021/10/18 06:26:40;;;;;;;63.83;31.48;;;;;;;;;;5054782;28;20021;-50
2021/10/18 06:29:06;;;;;;;37.15;23.38;;;;;;;;;;5054703;28;20025;-51
2021/10/18 06:31:35;;;;;;;41.22;26.63;;;;;;;;;;5054772;28;20043;-45
2021/10/18 06:34:05;;;;;;;39.55;24.85;;;;;;;;;;5054731;28;20032;-46
2021/10/18 06:36:34;;;;;;;40.70;27.70;;;;;;;;;;5054352;28;20029;-45
2021/10/18 06:39:00;;;;;;;38.40;24.98;;;;;;;;;;5054548;28;20737;-45
2021/10/18 06:41:27;;;;;;;39.67;25.45;;;;;;;;;;5054451;28;20383;-46
2021/10/18 06:43:53;;;;;;;39.65;24.30;;;;;;;;;;5054707;28;20388;-46
2021/10/18 06:46:19;;;;;;;33.70;23.92;;;;;;;;;;5054472;28;20021;-46
2021/10/18 06:48:45;;;;;;;37.03;24.58;;;;;;;;;;5054300;28;20025;-45
2021/10/18 06:51:11;;;;;;;35.38;22.73;;;;;;;;;;5054404;28;20385;-45
2021/10/18 06:53:38;;;;;;;32.65;22.20;;;;;;;;;;5054344;28;20021;-46
2021/10/18 06:56:05;;;;;;;32.28;21.85;;;;;;;;;;5054251;28;20079;-47
2021/10/18 06:58:32;;;;;;;31.38;22.05;;;;;;;;;;5054249;28;20029;-46
2021/10/18 07:00:58;;;;;;;36.88;21.90;;;;;;;;;;5054274;28;20157;-46
2021/10/18 07:03:26;;;;;;;34.63;22.63;;;;;;;;;;5054150;28;20020;-46
2021/10/18 07:05:53;;;;;;;35.38;22.02;;;;;;;;;;5054049;28;20485;-46
2021/10/18 07:08:19;;;;;;;40.33;22.52;;;;;;;;;;5054022;28;20040;-46
2021/10/18 07:10:45;;;;;;;39.00;25.85;;;;;;;;;;5053874;28;20021;-46
2021/10/18 07:13:12;;;;;;;44.78;28.40;;;;;;;;;;5054082;28;20025;-45
2021/10/18 07:15:39;;;;;;;66.85;40.83;;;;;;;;;;5053840;28;20025;-50
2021/10/18 07:18:07;;;;;;;68.88;42.08;;;;;;;;;;5053828;28;20385;-48
2021/10/18 07:20:33;;;;;;;66.78;43.28;;;;;;;;;;5053401;28;20028;-46
2021/10/18 07:23:01;;;;;;;59.67;38.80;;;;;;;;;;5053990;28;20112;-49
2021/10/18 07:25:27;;;;;;;59.33;36.85;;;;;;;;;;5053365;28;20098;-50
2021/10/18 07:27:53;;;;;;;58.00;39.03;;;;;;;;;;5053535;28;20032;-48
2021/10/18 07:30:20;;;;;;;57.63;37.92;;;;;;;;;;5053650;28;20021;-51
2021/10/18 07:32:46;;;;;;;53.15;35.15;;;;;;;;;;5053592;28;20163;-50
2021/10/18 07:35:13;;;;;;;46.80;32.90;;;;;;;;;;5052218;28;20032;-47
2021/10/18 07:37:40;;;;;;;45.97;31.98;;;;;;;;;;5053341;28;20054;-52
2021/10/18 07:40:07;;;;;;;47.58;30.45;;;;;;;;;;5053408;28;20029;-52
2021/10/18 07:42:33;;;;;;;44.70;26.45;;;;;;;;;;5053525;28;20095;-47
2021/10/18 07:44:59;;;;;;;42.63;23.50;;;;;;;;;;5053581;28;20055;-48
2021/10/18 07:47:25;;;;;;;38.60;22.20;;;;;;;;;;5053292;28;20092;-51
2021/10/18 07:49:52;;;;;;;30.75;20.85;;;;;;;;;;5053280;28;20025;-48
2021/10/18 07:52:18;;;;;;;31.35;20.48;;;;;;;;;;5053169;28;20052;-48
2021/10/18 07:54:46;;;;;;;29.98;20.17;;;;;;;;;;5053085;28;20021;-47
2021/10/18 07:57:14;;;;;;;32.88;20.30;;;;;;;;;;5053351;28;20037;-50
2021/10/18 07:59:40;;;;;;;33.63;21.40;;;;;;;;;;5053343;28;20384;-51
2021/10/18 08:02:07;;;;;;;36.17;20.40;;;;;;;;;;5053188;28;20025;-47
2021/10/18 08:04:35;;;;;;;26.33;19.42;;;;;;;;;;5053006;28;20507;-48
2021/10/18 08:07:01;;;;;;;30.73;19.75;;;;;;;;;;5053140;28;20025;-47
2021/10/18 08:09:27;;;;;;;33.20;20.88;;;;;;;;;;5053135;28;20025;-47
2021/10/18 08:11:55;;;;;;;35.58;20.40;;;;;;;;;;5053222;28;20468;-47
2021/10/18 08:14:22;;;;;;;30.13;18.55;;;;;;;;;;5053078;28;20057;-49
2021/10/18 08:16:48;;;;;;;34.13;17.92;;;;;;;;;;5052854;28;20056;-47
2021/10/18 08:19:14;;;;;;;22.95;15.18;;;;;;;;;;5053147;28;20033;-47
2021/10/18 08:21:40;;;;;;;28.40;16.60;;;;;;;;;;5052941;28;20082;-47
2021/10/18 08:24:06;;;;;;;25.20;16.10;;;;;;;;;;5052871;28;20052;-46
2021/10/18 08:26:32;;;;;;;23.10;14.63;;;;;;;;;;5052822;28;20021;-47
2021/10/18 08:28:58;;;;;;;42.58;18.35;;;;;;;;;;5052843;28;20054;-47
2021/10/18 08:31:24;;;;;;;24.95;14.18;;;;;;;;;;5053394;28;20026;-47
2021/10/18 08:33:50;;;;;;;22.55;15.43;;;;;;;;;;5057011;28;20016;-49
2021/10/18 08:36:17;;;;;;;26.33;15.70;;;;;;;;;;5056816;28;20025;-47
2021/10/18 08:38:49;;;;;;;24.67;15.85;;;;;;;;;;5056893;28;20029;-46
2021/10/18 08:41:31;;;;;;;22.52;13.95;;;;;;;;;;5056651;28;20048;-48
2021/10/18 08:44:16;;;;;;;18.77;13.18;;;;;;;;;;5056635;28;20350;-47
2021/10/18 08:46:46;;;;;;;26.42;15.00;;;;;;;;;;5056617;28;20104;-46
2021/10/18 08:49:12;;;;;;;23.88;14.57;;;;;;;;;;5056580;28;20517;-46
2021/10/18 08:51:39;;;;;;;28.33;12.50;;;;;;;;;;5056393;28;20039;-47
2021/10/18 08:54:09;;;;;;;33.42;16.08;;;;;;;;;;5056690;28;20151;-50
2021/10/18 08:56:36;;;;;;;34.25;19.00;;;;;;;;;;5056409;28;20025;-47
2021/10/18 08:59:02;;;;;;;17.85;10.30;;;;;;;;;;5056363;28;20055;-51
2021/10/18 09:01:41;;;;;;;35.88;22.02;;;;;;;;;;5056251;28;20493;-46
2021/10/18 09:04:11;;;;;;;23.83;14.80;;;;;;;;;;5056163;28;20095;-47
2021/10/18 09:06:44;;;;;;;46.97;20.48;;;;;;;;;;5056468;28;20032;-47
2021/10/18 09:09:11;;;;;;;20.77;10.35;;;;;;;;;;5056173;28;20021;-47
2021/10/18 09:11:37;;;;;;;36.55;12.80;;;;;;;;;;5056439;28;20036;-47
2021/10/18 09:14:04;;;;;;;24.23;12.20;;;;;;;;;;5056354;28;20040;-47
2021/10/18 09:16:37;;;;;;;28.02;13.02;;;;;;;;;;5056100;28;20025;-47
2021/10/18 09:19:12;;;;;;;41.67;19.02;;;;;;;;;;5056134;28;20041;-46
2021/10/18 09:21:38;;;;;;;32.63;16.83;;;;;;;;;;5056090;28;20025;-47
2021/10/18 09:24:05;;;;;;;26.25;13.98;;;;;;;;;;5055591;28;20057;-47
2021/10/18 09:26:32;;;;;;;23.98;11.77;;;;;;;;;;5055122;28;20024;-48
2021/10/18 09:29:05;;;;;;;19.70;9.20;;;;;;;;;;5054608;28;20029;-47
2021/10/18 09:31:32;;;;;;;22.45;9.43;;;;;;;;;;5055141;28;20024;-47
2021/10/18 09:34:27;;;;;;;23.45;9.40;;;;;;;;;;5054664;28;20103;-48
2021/10/18 09:37:04;;;;;;;11.90;7.00;;;;;;;;;;5032820;28;20099;-48
2021/10/18 09:39:30;;;;;;;17.30;9.07;;;;;;;;;;5032606;28;20544;-47
2021/10/18 09:41:59;;;;;;;17.52;9.15;;;;;;;;;;5032281;28;20500;-48
2021/10/18 09:44:43;;;;;;;25.77;11.10;;;;;;;;;;5032499;28;20076;-48
2021/10/18 09:47:43;;;;;;;26.30;14.27;;;;;;;;;;5032314;28;20120;-48
2021/10/18 10:52:51;;;;;;;17.15;7.80;;;;;;;;;;5008617;28;20109;-49
2021/10/18 10:55:19;;;;;;;15.70;7.55;;;;;;;;;;5008376;28;20083;-49
2021/10/18 10:57:48;;;;;;;11.77;6.53;;;;;;;;;;5008559;28;20026;-50
2021/10/18 11:00:30;;;;;;;13.23;7.38;;;;;;;;;;5008635;28;20030;-49
2021/10/18 11:03:41;;;;;;;14.52;7.43;;;;;;;;;;5008416;28;20034;-49
2021/10/18 11:06:10;;;;;;;11.20;5.93;;;;;;;;;;5008383;28;20137;-49
2021/10/18 11:08:38;;;;;;;13.15;6.85;;;;;;;;;;5008221;28;20030;-49
2021/10/18 11:11:19;;;;;;;9.38;5.90;;;;;;;;;;5008263;28;20037;-49
2021/10/18 11:13:54;;;;;;;12.30;7.07;;;;;;;;;;5003577;28;20027;-49
2021/10/18 11:16:22;;;;;;;17.40;6.22;;;;;;;;;;5069984;28;20032;-49
2021/10/18 11:18:54;;;;;;;12.98;6.40;;;;;;;;;;5069518;28;20067;-49
2021/10/18 11:21:20;;;;;;;11.52;5.88;;;;;;;;;;5069784;28;20089;-49
2021/10/18 11:24:01;;;;;;;7.00;4.00;;;;;;;;;;5069737;28;20017;-49
2021/10/18 11:26:31;;;;;;;5.80;3.95;;;;;;;;;;5069509;28;20040;-49
2021/10/18 11:29:03;;;;;;;7.88;4.65;;;;;;;;;;5069363;28;20017;-49
2021/10/18 11:31:33;;;;;;;6.30;3.92;;;;;;;;;;5069381;28;20370;-49
2021/10/18 11:34:20;;;;;;;8.23;5.13;;;;;;;;;;5069268;28;20142;-49
2021/10/18 11:36:47;;;;;;;11.93;4.80;;;;;;;;;;5060489;28;20056;-49
2021/10/18 11:39:21;;;;;;;18.27;5.60;;;;;;;;;;5056555;28;20104;-50
2021/10/18 11:41:59;;;;;;;15.05;6.00;;;;;;;;;;5055939;28;20041;-49
2021/10/18 11:44:38;;;;;;;9.77;5.78;;;;;;;;;;5056144;28;20036;-49
2021/10/18 11:47:04;;;;;;;11.60;6.10;;;;;;;;;;5056312;28;20017;-50
2021/10/18 11:49:30;;;;;;;12.68;5.40;;;;;;;;;;5056084;28;20025;-50
2021/10/18 11:51:56;;;;;;;9.00;6.18;;;;;;;;;;5055899;28;20492;-50
2021/10/18 11:54:23;;;;;;;11.25;4.93;;;;;;;;;;5055631;28;20072;-49
2021/10/18 11:56:55;;;;;;;9.48;5.70;;;;;;;;;;5055834;28;20033;-49
2021/10/18 11:59:22;;;;;;;9.05;5.57;;;;;;;;;;5055910;28;20025;-49
2021/10/18 12:01:48;;;;;;;11.82;5.32;;;;;;;;;;5055924;28;20052;-49
2021/10/18 12:04:14;;;;;;;12.38;6.10;;;;;;;;;;5055562;28;20509;-49
2021/10/18 12:06:46;;;;;;;9.32;5.05;;;;;;;;;;5055525;28;20036;-49
2021/10/18 12:09:25;;;;;;;6.28;4.70;;;;;;;;;;5055515;28;20092;-49
2021/10/18 12:11:53;;;;;;;13.63;5.03;;;;;;;;;;5055641;28;20036;-49
2021/10/18 12:14:19;;;;;;;15.32;5.93;;;;;;;;;;5055487;28;20025;-49
2021/10/18 12:16:45;;;;;;;10.13;5.55;;;;;;;;;;5055350;28;20086;-49
2021/10/18 12:19:13;;;;;;;8.32;4.95;;;;;;;;;;5055343;28;20514;-50
2021/10/18 12:21:40;;;;;;;9.80;5.30;;;;;;;;;;5055293;28;20024;-49
2021/10/18 12:24:16;;;;;;;11.82;6.00;;;;;;;;;;5054892;28;20064;-49
2021/10/18 12:26:43;;;;;;;14.35;6.05;;;;;;;;;;5055457;28;20029;-49
2021/10/18 12:29:09;;;;;;;8.55;5.00;;;;;;;;;;5055560;28;20418;-50
2021/10/18 12:31:45;;;;;;;8.45;4.80;;;;;;;;;;5055422;28;20024;-49
2021/10/18 12:34:23;;;;;;;12.63;5.57;;;;;;;;;;5054915;28;20040;-49
2021/10/18 12:37:05;;;;;;;10.75;6.28;;;;;;;;;;5055183;28;20029;-49
2021/10/18 12:39:46;;;;;;;8.73;5.65;;;;;;;;;;5055195;28;20035;-49
2021/10/18 12:42:12;;;;;;;13.80;5.70;;;;;;;;;;5055009;28;20052;-49
2021/10/18 12:44:42;;;;;;;9.23;5.55;;;;;;;;;;5054864;28;20037;-49
2021/10/18 12:47:13;;;;;;;8.83;5.07;;;;;;;;;;5054536;28;20041;-49
2021/10/18 12:49:40;;;;;;;13.07;5.38;;;;;;;;;;5054322;28;20028;-49
2021/10/18 12:52:06;;;;;;;10.80;6.65;;;;;;;;;;5055016;28;20036;-50
2021/10/18 12:54:44;;;;;;;9.63;7.22;;;;;;;;;;5054994;28;20539;-50
2021/10/18 12:57:12;;;;;;;12.02;6.18;;;;;;;;;;5054706;28;20105;-50
2021/10/18 12:59:59;;;;;;;16.83;5.72;;;;;;;;;;5054440;28;20040;-49
2021/10/18 13:02:26;;;;;;;11.48;5.28;;;;;;;;;;5054550;28;20028;-49
2021/10/18 13:05:18;;;;;;;12.20;5.60;;;;;;;;;;5054598;28;20116;-49
2021/10/18 13:07:44;;;;;;;9.55;5.35;;;;;;;;;;5053318;28;20033;-49
2021/10/18 13:10:12;;;;;;;7.88;5.38;;;;;;;;;;5054260;28;20025;-49
2021/10/18 13:12:39;;;;;;;13.75;5.70;;;;;;;;;;5054474;28;20388;-51
2021/10/18 13:15:06;;;;;;;12.27;5.72;;;;;;;;;;5054413;28;20055;-49
2021/10/18 13:17:32;;;;;;;14.10;6.63;;;;;;;;;;5054318;28;20021;-49
2021/10/18 13:19:58;;;;;;;18.85;8.80;;;;;;;;;;5054323;28;20396;-49
2021/10/18 13:22:24;;;;;;;22.42;8.43;;;;;;;;;;5054321;28;20028;-49
2021/10/18 13:24:50;;;;;;;15.63;9.38;;;;;;;;;;5053746;28;20048;-49
2021/10/18 13:27:16;;;;;;;28.52;13.63;;;;;;;;;;5054199;28;20024;-50
2021/10/18 13:29:42;;;;;;;27.55;11.48;;;;;;;;;;5053962;28;20052;-50
2021/10/18 13:32:08;;;;;;;20.35;10.63;;;;;;;;;;5053685;28;20461;-51
2021/10/18 13:34:35;;;;;;;15.00;8.48;;;;;;;;;;5053947;28;20388;-49
2021/10/18 13:37:01;;;;;;;18.30;7.88;;;;;;;;;;5054107;28;20028;-49
2021/10/18 13:39:28;;;;;;;13.23;7.68;;;;;;;;;;5053736;28;20033;-50
2021/10/18 13:41:54;;;;;;;18.58;7.82;;;;;;;;;;5053715;28;20064;-50
2021/10/18 13:44:21;;;;;;;15.35;6.78;;;;;;;;;;5053708;28;20032;-49
2021/10/18 13:46:47;;;;;;;10.63;6.57;;;;;;;;;;5053809;28;20481;-49
2021/10/18 13:49:14;;;;;;;14.50;6.75;;;;;;;;;;5053783;28;20484;-48
2021/10/18 13:51:40;;;;;;;21.15;7.13;;;;;;;;;;5053551;28;20499;-49
2021/10/18 13:54:07;;;;;;;15.70;5.85;;;;;;;;;;5053359;28;20465;-49
2021/10/18 13:56:34;;;;;;;18.20;7.40;;;;;;;;;;5053376;28;20031;-49
2021/10/18 13:59:00;;;;;;;13.68;6.88;;;;;;;;;;5053424;28;20053;-49
2021/10/18 14:01:29;;;;;;;17.98;8.60;;;;;;;;;;5053375;28;20025;-47
2021/10/18 14:03:55;;;;;;;20.98;8.40;;;;;;;;;;5053203;28;20017;-49
2021/10/18 14:06:21;;;;;;;26.25;11.45;;;;;;;;;;5052091;28;20036;-48
2021/10/18 14:08:47;;;;;;;18.15;7.30;;;;;;;;;;5052620;28;20017;-48
2021/10/18 14:11:13;;;;;;;19.40;8.15;;;;;;;;;;5052708;28;20021;-48
2021/10/18 14:13:40;;;;;;;37.55;13.88;;;;;;;;;;5052761;28;20021;-48
2021/10/18 14:16:06;;;;;;;24.65;10.52;;;;;;;;;;5052836;28;20053;-48
2021/10/18 14:18:32;;;;;;;27.05;9.90;;;;;;;;;;5052569;28;20094;-49
2021/10/18 14:20:58;;;;;;;19.33;11.88;;;;;;;;;;5037821;28;20615;-48
2021/10/18 14:23:24;;;;;;;15.88;8.07;;;;;;;;;;5021406;28;20043;-48
2021/10/18 14:25:50;;;;;;;18.27;8.95;;;;;;;;;;5020843;28;20136;-48
2021/10/18 14:28:17;;;;;;;24.20;9.90;;;;;;;;;;5021123;28;20028;-49
2021/10/18 14:30:43;;;;;;;35.15;16.40;;;;;;;;;;5021258;28;20032;-47
2021/10/18 14:33:09;;;;;;;34.33;12.45;;;;;;;;;;5021158;28;20021;-50
2021/10/18 14:35:35;;;;;;;34.58;12.27;;;;;;;;;;5021048;28;20489;-50
2021/10/18 14:38:02;;;;;;;39.42;18.02;;;;;;;;;;5020939;28;20400;-49
2021/10/18 14:40:30;;;;;;;45.38;16.77;;;;;;;;;;5021307;28;20032;-50
2021/10/18 14:42:56;;;;;;;49.75;20.58;;;;;;;;;;5022076;28;20025;-49
2021/10/18 14:45:22;;;;;;;53.85;34.72;;;;;;;;;;5021824;28;20036;-50
2021/10/18 14:47:48;;;;;;;32.47;17.98;;;;;;;;;;5020754;28;20029;-50
2021/10/18 14:50:14;;;;;;;25.08;13.32;;;;;;;;;;5020825;28;20017;-49
2021/10/18 14:52:41;;;;;;;23.52;13.10;;;;;;;;;;5021217;28;20522;-50
2021/10/18 14:55:08;;;;;;;24.80;12.85;;;;;;;;;;5020752;28;20041;-49
2021/10/18 14:57:35;;;;;;;41.63;21.48;;;;;;;;;;5020775;28;20025;-49
2021/10/18 15:00:01;;;;;;;19.35;11.30;;;;;;;;;;5020855;28;20037;-50
2021/10/18 15:02:28;;;;;;;40.40;19.00;;;;;;;;;;5020924;28;20030;-49
2021/10/18 15:04:57;;;;;;;21.25;11.98;;;;;;;;;;5020760;28;20191;-49
2021/10/18 15:07:23;;;;;;;22.35;10.98;;;;;;;;;;5022383;28;20021;-49
2021/10/18 15:09:50;;;;;;;17.90;11.32;;;;;;;;;;5020889;28;20597;-49
2021/10/18 15:12:21;;;;;;;26.63;11.70;;;;;;;;;;5023379;28;20497;-49
2021/10/18 15:14:48;;;;;;;24.55;12.15;;;;;;;;;;5024564;28;20101;-49
2021/10/18 15:17:14;;;;;;;28.13;14.43;;;;;;;;;;5024865;28;20059;-49
2021/10/18 15:19:40;;;;;;;34.75;15.98;;;;;;;;;;5024645;28;20366;-49
2021/10/18 15:22:07;;;;;;;43.15;18.73;;;;;;;;;;5024552;28;20086;-48
2021/10/18 15:24:33;;;;;;;30.73;17.35;;;;;;;;;;5023764;28;20506;-50
2021/10/18 15:26:59;;;;;;;36.53;18.75;;;;;;;;;;5024574;28;20026;-48